Terminal Aerodrome Forecast
Issued by NWS

Home | Current Version | Previous Version | Text Only | Print | Product List | Glossary On
Versions: 1 2 3 4 5 6 7 8 9 10 11 12 13 14 15 16 17 18 19 20 21 22 23 24 25 26 27 28 29 30 31 32 33 34 35 36 37 38 39 40 41 42 43 44 45 46 47 48 49 50
000
FTUS45 KBOU 282340
TAFAPA
TAF
KAPA 282340Z 2900/2924 02008KT P6SM FEW080
     FM290100 28007KT P6SM FEW080 SCT140
     FM290500 23008KT P6SM SCT080 BKN140
     FM291000 32009KT P6SM SCT070 BKN120
     FM291400 01010KT P6SM SCT060 BKN090
     FM291700 06010G15KT P6SM SCT060 BKN080
      TEMPO 2921/2924 VRB15G30KT -TSRA BKN060CB=

USA.gov is the U.S. government's official web portal to all federal, state and local government web resources and services.